sensor_id;sensor_type;location;lat;lon;timestamp;pressure;altitude;pressure_sealevel;temperature;humidity
70954;BME280;58618;47.490;8.736;2024-03-23T00:54:48;96029.53;;;6.86;100.00
70954;BME280;58618;47.490;8.736;2024-03-23T00:57:35;96025.91;;;7.02;100.00
70954;BME280;58618;47.490;8.736;2024-03-23T01:00:22;96023.75;;;7.30;100.00
70954;BME280;58618;47.490;8.736;2024-03-23T01:03:08;96007.41;;;7.70;100.00
70954;BME280;58618;47.490;8.736;2024-03-23T01:05:59;96008.59;;;7.87;100.00
70954;BME280;58618;47.490;8.736;2024-03-23T01:08:45;96004.84;;;8.09;100.00
70954;BME280;58618;47.490;8.736;2024-03-23T01:11:34;95998.38;;;8.50;100.00
70954;BME280;58618;47.490;8.736;2024-03-23T01:14:20;95993.19;;;8.55;100.00
70954;BME280;58618;47.490;8.736;2024-03-23T01:17:08;95999.16;;;9.83;100.00
70954;BME280;58618;47.490;8.736;2024-03-23T01:19:54;95995.88;;;9.59;100.00
70954;BME280;58618;47.490;8.736;2024-03-23T01:22:42;95992.53;;;9.58;100.00
70954;BME280;58618;47.490;8.736;2024-03-23T01:25:28;95988.34;;;9.62;100.00
70954;BME280;58618;47.490;8.736;2024-03-23T01:28:17;95989.28;;;9.71;100.00
70954;BME280;58618;47.490;8.736;2024-03-23T01:31:03;95984.88;;;10.09;100.00
70954;BME280;58618;47.490;8.736;2024-03-23T01:33:51;95978.19;;;9.90;100.00
70954;BME280;58618;47.490;8.736;2024-03-23T01:36:37;95981.31;;;10.24;100.00
70954;BME280;58618;47.490;8.736;2024-03-23T01:39:25;95965.31;;;9.90;100.00
70954;BME280;58618;47.490;8.736;2024-03-23T01:42:11;95975.09;;;11.12;100.00
70954;BME280;58618;47.490;8.736;2024-03-23T01:45:00;95963.22;;;10.56;100.00
70954;BME280;58618;47.490;8.736;2024-03-23T01:47:46;95964.91;;;10.34;100.00
70954;BME280;58618;47.490;8.736;2024-03-23T01:50:34;95965.81;;;10.70;100.00
70954;BME280;58618;47.490;8.736;2024-03-23T01:53:21;95958.81;;;10.43;100.00
70954;BME280;58618;47.490;8.736;2024-03-23T01:56:09;95942.38;;;10.07;100.00
70954;BME280;58618;47.490;8.736;2024-03-23T01:58:55;95941.78;;;10.10;100.00
70954;BME280;58618;47.490;8.736;2024-03-23T02:01:44;95939.53;;;9.90;100.00
70954;BME280;58618;47.490;8.736;2024-03-23T02:04:31;95928.69;;;9.93;100.00
70954;BME280;58618;47.490;8.736;2024-03-23T02:07:18;95930.44;;;9.79;100.00
70954;BME280;58618;47.490;8.736;2024-03-23T02:10:06;95923.84;;;9.72;100.00
70954;BME280;58618;47.490;8.736;2024-03-23T02:12:53;95922.78;;;9.73;100.00
70954;BME280;58618;47.490;8.736;2024-03-23T02:15:39;95915.63;;;9.70;100.00
70954;BME280;58618;47.490;8.736;2024-03-23T02:18:28;95907.84;;;9.75;100.00
70954;BME280;58618;47.490;8.736;2024-03-23T02:21:16;95900.38;;;9.74;100.00
70954;BME280;58618;47.490;8.736;2024-03-23T02:24:04;95894.81;;;10.18;100.00
70954;BME280;58618;47.490;8.736;2024-03-23T02:26:51;95888.59;;;10.19;100.00
70954;BME280;58618;47.490;8.736;2024-03-23T02:29:37;95880.94;;;10.14;100.00
70954;BME280;58618;47.490;8.736;2024-03-23T02:32:25;95890.44;;;10.46;100.00
70954;BME280;58618;47.490;8.736;2024-03-23T02:35:11;95886.63;;;10.43;100.00
70954;BME280;58618;47.490;8.736;2024-03-23T02:37:58;95884.91;;;11.16;100.00
70954;BME280;58618;47.490;8.736;2024-03-23T02:40:46;95870.91;;;11.66;100.00
70954;BME280;58618;47.490;8.736;2024-03-23T02:43:34;95871.06;;;11.48;100.00
70954;BME280;58618;47.490;8.736;2024-03-23T02:46:20;95861.56;;;11.57;100.00
70954;BME280;58618;47.490;8.736;2024-03-23T02:49:07;95851.88;;;11.40;100.00
70954;BME280;58618;47.490;8.736;2024-03-23T02:51:54;95852.44;;;11.37;100.00
70954;BME280;58618;47.490;8.736;2024-03-23T02:54:41;95853.22;;;11.37;100.00
70954;BME280;58618;47.490;8.736;2024-03-23T02:57:32;95852.53;;;11.90;100.00
70954;BME280;58618;47.490;8.736;2024-03-23T03:00:19;95837.31;;;11.66;100.00
70954;BME280;58618;47.490;8.736;2024-03-23T03:03:06;95849.34;;;11.49;100.00
70954;BME280;58618;47.490;8.736;2024-03-23T03:05:55;95835.09;;;11.29;100.00
70954;BME280;58618;47.490;8.736;2024-03-23T03:08:41;95828.41;;;11.28;100.00
70954;BME280;58618;47.490;8.736;2024-03-23T03:11:29;95836.22;;;11.36;100.00
70954;BME280;58618;47.490;8.736;2024-03-23T03:14:17;95833.38;;;11.69;100.00
70954;BME280;58618;47.490;8.736;2024-03-23T03:17:04;95831.25;;;11.71;100.00
70954;BME280;58618;47.490;8.736;2024-03-23T03:19:51;95830.81;;;11.47;100.00
70954;BME280;58618;47.490;8.736;2024-03-23T03:22:41;95832.69;;;11.77;100.00
70954;BME280;58618;47.490;8.736;2024-03-23T03:25:29;95844.03;;;11.90;99.68
70954;BME280;58618;47.490;8.736;2024-03-23T03:28:15;95837.75;;;11.82;98.19
70954;BME280;58618;47.490;8.736;2024-03-23T03:31:04;95839.47;;;11.95;95.88
70954;BME280;58618;47.490;8.736;2024-03-23T03:33:50;95849.69;;;12.00;96.56
70954;BME280;58618;47.490;8.736;2024-03-23T03:36:38;95851.09;;;12.06;96.57
70954;BME280;58618;47.490;8.736;2024-03-23T03:39:24;95843.59;;;11.74;99.99
70954;BME280;58618;47.490;8.736;2024-03-23T03:42:11;95847.94;;;11.65;100.00
70954;BME280;58618;47.490;8.736;2024-03-23T03:44:58;95847.25;;;11.51;100.00
70954;BME280;58618;47.490;8.736;2024-03-23T03:47:46;95843.25;;;11.44;100.00
70954;BME280;58618;47.490;8.736;2024-03-23T03:50:34;95838.72;;;11.28;100.00
70954;BME280;58618;47.490;8.736;2024-03-23T03:53:20;95825.97;;;11.09;100.00
70954;BME280;58618;47.490;8.736;2024-03-23T03:56:08;95815.78;;;11.04;100.00
70954;BME280;58618;47.490;8.736;2024-03-23T03:58:54;95812.81;;;10.97;100.00
70954;BME280;58618;47.490;8.736;2024-03-23T04:01:41;95792.41;;;10.87;100.00
70954;BME280;58618;47.490;8.736;2024-03-23T04:04:29;95792.63;;;10.77;100.00
70954;BME280;58618;47.490;8.736;2024-03-23T04:07:16;95796.13;;;10.81;100.00
70954;BME280;58618;47.490;8.736;2024-03-23T04:10:05;95794.09;;;10.91;100.00
70954;BME280;58618;47.490;8.736;2024-03-23T04:12:54;95782.06;;;10.87;100.00
70954;BME280;58618;47.490;8.736;2024-03-23T04:15:40;95775.00;;;10.79;100.00
70954;BME280;58618;47.490;8.736;2024-03-23T04:18:27;95769.59;;;11.02;100.00
70954;BME280;58618;47.490;8.736;2024-03-23T04:21:15;95763.22;;;11.22;100.00
70954;BME280;58618;47.490;8.736;2024-03-23T04:24:03;95753.44;;;10.75;100.00
70954;BME280;58618;47.490;8.736;2024-03-23T04:26:49;95751.78;;;10.56;100.00
70954;BME280;58618;47.490;8.736;2024-03-23T04:29:37;95746.47;;;10.39;100.00
70954;BME280;58618;47.490;8.736;2024-03-23T04:32:23;95750.88;;;10.25;100.00
70954;BME280;58618;47.490;8.736;2024-03-23T04:35:11;95738.53;;;10.22;100.00
70954;BME280;58618;47.490;8.736;2024-03-23T04:37:58;95740.81;;;9.96;100.00
70954;BME280;58618;47.490;8.736;2024-03-23T04:40:54;95730.53;;;9.83;100.00
70954;BME280;58618;47.490;8.736;2024-03-23T04:43:41;95724.81;;;9.72;100.00
70954;BME280;58618;47.490;8.736;2024-03-23T04:46:28;95724.69;;;9.63;100.00
70954;BME280;58618;47.490;8.736;2024-03-23T04:49:16;95715.41;;;9.49;100.00
70954;BME280;58618;47.490;8.736;2024-03-23T04:52:04;95721.97;;;9.41;100.00
70954;BME280;58618;47.490;8.736;2024-03-23T04:54:53;95714.75;;;9.43;100.00
70954;BME280;58618;47.490;8.736;2024-03-23T04:57:40;95697.59;;;9.52;100.00
70954;BME280;58618;47.490;8.736;2024-03-23T05:00:28;95689.41;;;9.50;100.00
70954;BME280;58618;47.490;8.736;2024-03-23T05:03:14;95690.34;;;9.54;100.00
70954;BME280;58618;47.490;8.736;2024-03-23T05:06:01;95689.22;;;9.60;100.00
70954;BME280;58618;47.490;8.736;2024-03-23T05:08:48;95695.72;;;9.71;100.00
70954;BME280;58618;47.490;8.736;2024-03-23T05:11:37;95672.63;;;9.66;100.00
70954;BME280;58618;47.490;8.736;2024-03-23T05:14:23;95676.63;;;9.72;100.00
70954;BME280;58618;47.490;8.736;2024-03-23T05:17:11;95668.13;;;9.86;100.00
70954;BME280;58618;47.490;8.736;2024-03-23T05:19:57;95679.06;;;10.32;100.00
70954;BME280;58618;47.490;8.736;2024-03-23T05:22:45;95668.41;;;10.25;100.00
70954;BME280;58618;47.490;8.736;2024-03-23T05:25:32;95714.72;;;10.52;100.00
70954;BME280;58618;47.490;8.736;2024-03-23T05:28:21;95733.88;;;10.96;100.00
70954;BME280;58618;47.490;8.736;2024-03-23T05:31:07;95739.41;;;11.03;100.00
70954;BME280;58618;47.490;8.736;2024-03-23T05:33:56;95754.66;;;11.13;100.00
70954;BME280;58618;47.490;8.736;2024-03-23T05:36:42;95764.56;;;10.97;100.00
70954;BME280;58618;47.490;8.736;2024-03-23T05:39:29;95783.22;;;10.81;100.00
70954;BME280;58618;47.490;8.736;2024-03-23T05:42:16;95808.09;;;10.63;100.00
70954;BME280;58618;47.490;8.736;2024-03-23T05:45:06;95793.34;;;10.41;100.00
70954;BME280;58618;47.490;8.736;2024-03-23T05:47:52;95786.38;;;10.28;100.00
70954;BME280;58618;47.490;8.736;2024-03-23T05:50:40;95784.47;;;10.20;100.00
70954;BME280;58618;47.490;8.736;2024-03-23T05:53:26;95798.97;;;10.16;100.00
70954;BME280;58618;47.490;8.736;2024-03-23T05:56:14;95792.84;;;10.12;100.00
70954;BME280;58618;47.490;8.736;2024-03-23T05:59:00;95785.19;;;10.07;100.00
70954;BME280;58618;47.490;8.736;2024-03-23T06:01:50;95801.59;;;10.11;100.00
70954;BME280;58618;47.490;8.736;2024-03-23T06:04:38;95812.41;;;10.13;100.00
70954;BME280;58618;47.490;8.736;2024-03-23T06:07:25;95815.75;;;10.13;100.00
70954;BME280;58618;47.490;8.736;2024-03-23T06:10:11;95820.41;;;10.11;100.00
70954;BME280;58618;47.490;8.736;2024-03-23T06:12:59;95821.63;;;10.00;100.00
70954;BME280;58618;47.490;8.736;2024-03-23T06:15:46;95833.66;;;10.05;100.00
70954;BME280;58618;47.490;8.736;2024-03-23T06:18:34;95842.06;;;9.97;100.00
70954;BME280;58618;47.490;8.736;2024-03-23T06:21:21;95844.72;;;9.92;100.00
70954;BME280;58618;47.490;8.736;2024-03-23T06:24:10;95847.31;;;9.92;100.00
70954;BME280;58618;47.490;8.736;2024-03-23T06:26:56;95846.72;;;9.95;100.00
70954;BME280;58618;47.490;8.736;2024-03-23T06:29:44;95856.06;;;9.91;100.00
70954;BME280;58618;47.490;8.736;2024-03-23T06:32:30;95874.69;;;9.88;100.00
70954;BME280;58618;47.490;8.736;2024-03-23T06:35:21;95865.88;;;9.89;100.00
70954;BME280;58618;47.490;8.736;2024-03-23T06:38:08;95873.22;;;9.82;100.00
70954;BME280;58618;47.490;8.736;2024-03-23T06:40:55;95878.47;;;9.77;100.00
70954;BME280;58618;47.490;8.736;2024-03-23T06:43:41;95882.16;;;9.70;100.00
70954;BME280;58618;47.490;8.736;2024-03-23T06:46:29;95875.00;;;9.67;100.00
70954;BME280;58618;47.490;8.736;2024-03-23T06:49:15;95876.50;;;9.68;100.00
70954;BME280;58618;47.490;8.736;2024-03-23T06:52:04;95871.94;;;9.65;100.00
70954;BME280;58618;47.490;8.736;2024-03-23T06:54:50;95865.34;;;9.59;100.00
70954;BME280;58618;47.490;8.736;2024-03-23T06:57:38;95884.31;;;9.63;100.00
70954;BME280;58618;47.490;8.736;2024-03-23T07:00:24;95876.59;;;9.63;100.00
70954;BME280;58618;47.490;8.736;2024-03-23T07:03:11;95893.06;;;9.62;100.00
70954;BME280;58618;47.490;8.736;2024-03-23T07:05:58;95893.50;;;9.69;100.00
70954;BME280;58618;47.490;8.736;2024-03-23T07:08:47;95910.47;;;9.70;100.00
70954;BME280;58618;47.490;8.736;2024-03-23T07:11:33;95914.66;;;9.66;100.00
70954;BME280;58618;47.490;8.736;2024-03-23T07:14:21;95898.44;;;9.66;100.00
70954;BME280;58618;47.490;8.736;2024-03-23T07:17:07;95920.97;;;9.74;100.00
70954;BME280;58618;47.490;8.736;2024-03-23T07:19:55;95927.94;;;9.73;100.00
70954;BME280;58618;47.490;8.736;2024-03-23T07:22:41;95936.81;;;9.67;100.00
70954;BME280;58618;47.490;8.736;2024-03-23T07:25:30;95936.59;;;9.64;100.00
70954;BME280;58618;47.490;8.736;2024-03-23T07:28:17;95954.13;;;9.62;100.00
70954;BME280;58618;47.490;8.736;2024-03-23T07:31:05;95953.84;;;9.63;100.00
70954;BME280;58618;47.490;8.736;2024-03-23T07:33:52;95966.78;;;9.58;100.00
70954;BME280;58618;47.490;8.736;2024-03-23T07:36:38;95966.72;;;9.63;100.00
70954;BME280;58618;47.490;8.736;2024-03-23T07:39:26;95959.81;;;9.59;100.00
70954;BME280;58618;47.490;8.736;2024-03-23T07:42:15;95982.16;;;9.63;100.00
70954;BME280;58618;47.490;8.736;2024-03-23T07:45:03;95984.25;;;9.61;100.00
70954;BME280;58618;47.490;8.736;2024-03-23T07:47:49;95996.63;;;9.59;100.00
70954;BME280;58618;47.490;8.736;2024-03-23T07:50:37;95993.38;;;9.54;100.00
70954;BME280;58618;47.490;8.736;2024-03-23T07:53:23;96011.06;;;9.60;100.00
70954;BME280;58618;47.490;8.736;2024-03-23T07:56:10;96001.78;;;9.59;100.00
70954;BME280;58618;47.490;8.736;2024-03-23T07:58:58;96019.69;;;9.51;100.00
70954;BME280;58618;47.490;8.736;2024-03-23T08:01:46;96024.97;;;9.59;100.00
70954;BME280;58618;47.490;8.736;2024-03-23T08:04:32;96058.88;;;9.43;100.00
70954;BME280;58618;47.490;8.736;2024-03-23T08:07:20;96063.03;;;9.15;100.00
70954;BME280;58618;47.490;8.736;2024-03-23T08:10:06;96068.28;;;9.05;100.00
70954;BME280;58618;47.490;8.736;2024-03-23T08:12:54;96062.28;;;8.90;100.00
70954;BME280;58618;47.490;8.736;2024-03-23T08:15:41;96057.44;;;8.84;100.00
70954;BME280;58618;47.490;8.736;2024-03-23T08:18:29;96061.28;;;8.86;100.00
70954;BME280;58618;47.490;8.736;2024-03-23T08:21:15;96071.22;;;8.98;100.00
70954;BME280;58618;47.490;8.736;2024-03-23T08:24:03;96108.56;;;8.90;100.00
70954;BME280;58618;47.490;8.736;2024-03-23T08:26:51;96123.72;;;8.92;100.00
70954;BME280;58618;47.490;8.736;2024-03-23T08:29:38;96143.06;;;8.84;100.00
70954;BME280;58618;47.490;8.736;2024-03-23T08:32:26;96134.84;;;8.87;100.00
70954;BME280;58618;47.490;8.736;2024-03-23T08:35:14;96148.72;;;8.86;100.00
70954;BME280;58618;47.490;8.736;2024-03-23T08:38:00;96150.09;;;8.74;100.00
70954;BME280;58618;47.490;8.736;2024-03-23T08:40:48;96162.78;;;8.65;100.00
70954;BME280;58618;47.490;8.736;2024-03-23T08:43:36;96174.13;;;8.59;100.00
70954;BME280;58618;47.490;8.736;2024-03-23T08:46:23;96174.03;;;8.69;100.00
70954;BME280;58618;47.490;8.736;2024-03-23T08:49:12;96182.34;;;8.61;100.00
70954;BME280;58618;47.490;8.736;2024-03-23T08:52:00;96178.78;;;8.52;100.00
70954;BME280;58618;47.490;8.736;2024-03-23T08:54:47;96192.66;;;8.56;100.00
70954;BME280;58618;47.490;8.736;2024-03-23T08:57:34;96195.09;;;8.76;100.00
70954;BME280;58618;47.490;8.736;2024-03-23T09:00:21;96185.47;;;8.92;100.00
70954;BME280;58618;47.490;8.736;2024-03-23T09:03:07;96192.78;;;9.09;100.00
70954;BME280;58618;47.490;8.736;2024-03-23T09:05:56;96203.69;;;9.29;100.00
70954;BME280;58618;47.490;8.736;2024-03-23T09:08:44;96199.06;;;9.26;100.00
70954;BME280;58618;47.490;8.736;2024-03-23T09:11:31;96201.69;;;9.50;100.00
70954;BME280;58618;47.490;8.736;2024-03-23T09:14:17;96201.47;;;9.70;100.00
70954;BME280;58618;47.490;8.736;2024-03-23T09:17:05;96206.25;;;9.82;100.00
70954;BME280;58618;47.490;8.736;2024-03-23T09:19:51;96225.13;;;9.78;100.00
70954;BME280;58618;47.490;8.736;2024-03-23T09:22:40;96226.97;;;9.43;100.00
70954;BME280;58618;47.490;8.736;2024-03-23T09:25:27;96232.25;;;9.28;100.00
70954;BME280;58618;47.490;8.736;2024-03-23T09:28:14;96242.16;;;9.11;100.00
70954;BME280;58618;47.490;8.736;2024-03-23T09:31:04;96255.59;;;9.03;100.00
70954;BME280;58618;47.490;8.736;2024-03-23T09:33:50;96254.09;;;8.97;100.00
70954;BME280;58618;47.490;8.736;2024-03-23T09:36:38;96265.97;;;8.93;100.00
70954;BME280;58618;47.490;8.736;2024-03-23T09:39:27;96276.31;;;8.82;100.00
70954;BME280;58618;47.490;8.736;2024-03-23T09:42:14;96288.19;;;8.73;100.00
70954;BME280;58618;47.490;8.736;2024-03-23T09:45:01;96294.41;;;8.62;100.00
70954;BME280;58618;47.490;8.736;2024-03-23T09:47:48;96289.22;;;8.67;100.00
70954;BME280;58618;47.490;8.736;2024-03-23T09:50:37;96278.38;;;8.80;100.00
70954;BME280;58618;47.490;8.736;2024-03-23T09:53:24;96285.56;;;8.78;100.00
70954;BME280;58618;47.490;8.736;2024-03-23T09:56:13;96278.53;;;8.94;100.00
70954;BME280;58618;47.490;8.736;2024-03-23T09:59:03;96287.94;;;9.14;100.00
70954;BME280;58618;47.490;8.736;2024-03-23T10:01:50;96284.41;;;9.39;100.00
70954;BME280;58618;47.490;8.736;2024-03-23T10:04:37;96291.97;;;9.30;100.00
70954;BME280;58618;47.490;8.736;2024-03-23T10:07:25;96290.09;;;9.02;100.00
70954;BME280;58618;47.490;8.736;2024-03-23T10:10:15;96296.16;;;9.16;100.00
70954;BME280;58618;47.490;8.736;2024-03-23T10:13:05;96295.72;;;9.09;100.00
70954;BME280;58618;47.490;8.736;2024-03-23T10:15:56;96305.00;;;9.00;100.00
70954;BME280;58618;47.490;8.736;2024-03-23T10:18:44;96306.69;;;8.75;100.00
70954;BME280;58618;47.490;8.736;2024-03-23T10:21:30;96314.88;;;8.87;100.00
70954;BME280;58618;47.490;8.736;2024-03-23T10:24:17;96314.38;;;8.80;100.00
70954;BME280;58618;47.490;8.736;2024-03-23T10:27:04;96313.28;;;8.92;100.00
70954;BME280;58618;47.490;8.736;2024-03-23T10:30:07;96315.31;;;8.95;100.00
70954;BME280;58618;47.490;8.736;2024-03-23T10:33:07;96302.13;;;9.06;98.90
70954;BME280;58618;47.490;8.736;2024-03-23T10:35:54;96300.34;;;9.07;99.87
70954;BME280;58618;47.490;8.736;2024-03-23T10:38:41;96310.84;;;9.10;98.10
70954;BME280;58618;47.490;8.736;2024-03-23T10:41:28;96307.00;;;9.13;100.00
70954;BME280;58618;47.490;8.736;2024-03-23T10:44:19;96288.31;;;9.31;92.45
70954;BME280;58618;47.490;8.736;2024-03-23T10:47:07;96301.69;;;9.33;83.27
70954;BME280;58618;47.490;8.736;2024-03-23T10:49:56;96298.91;;;9.29;80.86
70954;BME280;58618;47.490;8.736;2024-03-23T10:52:46;96301.03;;;9.17;80.04
70954;BME280;58618;47.490;8.736;2024-03-23T10:55:33;96303.16;;;9.44;76.15
70954;BME280;58618;47.490;8.736;2024-03-23T10:58:24;96301.09;;;9.46;77.42
70954;BME280;58618;47.490;8.736;2024-03-23T11:01:13;96308.63;;;9.38;73.84
70954;BME280;58618;47.490;8.736;2024-03-23T11:04:01;96308.06;;;9.46;68.18
70954;BME280;58618;47.490;8.736;2024-03-23T11:06:48;96285.09;;;9.49;73.57
70954;BME280;58618;47.490;8.736;2024-03-23T11:09:39;96312.91;;;9.47;75.83
70954;BME280;58618;47.490;8.736;2024-03-23T11:12:28;96327.91;;;9.40;68.53
70954;BME280;58618;47.490;8.736;2024-03-23T11:15:17;96304.16;;;9.48;66.49
70954;BME280;58618;47.490;8.736;2024-03-23T11:18:06;96279.50;;;9.42;63.01
70954;BME280;58618;47.490;8.736;2024-03-23T11:20:55;96315.03;;;9.40;68.66
70954;BME280;58618;47.490;8.736;2024-03-23T11:23:43;96288.53;;;9.68;67.46
70954;BME280;58618;47.490;8.736;2024-03-23T11:26:30;96284.84;;;9.80;71.14
70954;BME280;58618;47.490;8.736;2024-03-23T11:29:17;96288.81;;;9.96;66.94
70954;BME280;58618;47.490;8.736;2024-03-23T11:32:07;96288.69;;;10.06;66.87
70954;BME280;58618;47.490;8.736;2024-03-23T11:34:56;96269.63;;;10.07;60.18
70954;BME280;58618;47.490;8.736;2024-03-23T11:37:44;96281.94;;;10.39;68.58
70954;BME280;58618;47.490;8.736;2024-03-23T11:40:32;96279.63;;;10.37;62.84
70954;BME280;58618;47.490;8.736;2024-03-23T11:43:20;96269.00;;;10.20;63.42
70954;BME280;58618;47.490;8.736;2024-03-23T11:46:08;96281.72;;;10.35;58.32
70954;BME280;58618;47.490;8.736;2024-03-23T11:48:54;96262.13;;;10.34;60.32
70954;BME280;58618;47.490;8.736;2024-03-23T11:51:41;96265.38;;;10.21;59.31
70954;BME280;58618;47.490;8.736;2024-03-23T11:54:30;96254.53;;;10.24;61.04
70954;BME280;58618;47.490;8.736;2024-03-23T11:57:18;96262.63;;;10.36;59.42
70954;BME280;58618;47.490;8.736;2024-03-23T12:00:20;96260.59;;;10.33;57.46
70954;BME280;58618;47.490;8.736;2024-03-23T12:03:08;96263.78;;;10.68;57.96
70954;BME280;58618;47.490;8.736;2024-03-23T12:05:58;96249.75;;;10.92;57.61
70954;BME280;58618;47.490;8.736;2024-03-23T12:08:45;96253.94;;;11.39;59.20
70954;BME280;58618;47.490;8.736;2024-03-23T12:11:35;96236.75;;;11.49;59.63
70954;BME280;58618;47.490;8.736;2024-03-23T12:14:21;96236.63;;;11.86;57.51
70954;BME280;58618;47.490;8.736;2024-03-23T12:17:10;96249.00;;;12.16;54.69
70954;BME280;58618;47.490;8.736;2024-03-23T12:19:57;96252.44;;;12.25;54.76
70954;BME280;58618;47.490;8.736;2024-03-23T12:22:45;96259.59;;;11.74;57.47
70954;BME280;58618;47.490;8.736;2024-03-23T12:25:32;96264.75;;;10.72;69.25
70954;BME280;58618;47.490;8.736;2024-03-23T12:28:21;96273.59;;;10.23;76.37
70954;BME280;58618;47.490;8.736;2024-03-23T12:31:10;96269.00;;;9.67;85.24
70954;BME280;58618;47.490;8.736;2024-03-23T12:33:56;96271.13;;;9.60;91.15
70954;BME280;58618;47.490;8.736;2024-03-23T12:36:43;96273.44;;;9.28;90.60
70954;BME280;58618;47.490;8.736;2024-03-23T12:39:30;96265.19;;;9.26;93.08
70954;BME280;58618;47.490;8.736;2024-03-23T12:42:17;96274.41;;;9.32;97.13
70954;BME280;58618;47.490;8.736;2024-03-23T12:45:05;96258.75;;;9.28;87.94
70954;BME280;58618;47.490;8.736;2024-03-23T12:47:53;96258.47;;;9.35;90.89
70954;BME280;58618;47.490;8.736;2024-03-23T12:50:41;96246.38;;;8.97;86.37
70954;BME280;58618;47.490;8.736;2024-03-23T12:53:27;96248.81;;;9.17;91.52
70954;BME280;58618;47.490;8.736;2024-03-23T12:56:14;96252.03;;;8.99;84.39
70954;BME280;58618;47.490;8.736;2024-03-23T12:59:00;96237.47;;;9.18;77.25
70954;BME280;58618;47.490;8.736;2024-03-23T13:01:52;96201.38;;;9.28;74.05
70954;BME280;58618;47.490;8.736;2024-03-23T13:04:38;96223.09;;;9.46;79.37
70954;BME280;58618;47.490;8.736;2024-03-23T13:07:25;96223.00;;;9.56;74.02
70954;BME280;58618;47.490;8.736;2024-03-23T13:10:12;96228.16;;;9.80;76.01
70954;BME280;58618;47.490;8.736;2024-03-23T13:13:00;96216.78;;;9.62;70.83
70954;BME280;58618;47.490;8.736;2024-03-23T13:15:50;96216.31;;;9.79;68.95
70954;BME280;58618;47.490;8.736;2024-03-23T13:18:38;96214.69;;;9.88;72.50
70954;BME280;58618;47.490;8.736;2024-03-23T13:21:25;96219.97;;;9.78;66.91
70954;BME280;58618;47.490;8.736;2024-03-23T13:24:12;96219.50;;;9.70;70.36
70954;BME280;58618;47.490;8.736;2024-03-23T13:26:59;96220.34;;;9.66;71.49
70954;BME280;58618;47.490;8.736;2024-03-23T13:29:46;96219.84;;;9.88;71.76
70954;BME280;58618;47.490;8.736;2024-03-23T13:32:33;96204.88;;;9.90;73.80
70954;BME280;58618;47.490;8.736;2024-03-23T13:35:22;96195.09;;;10.10;73.00
70954;BME280;58618;47.490;8.736;2024-03-23T13:38:09;96211.16;;;10.26;73.53
70954;BME280;58618;47.490;8.736;2024-03-23T13:40:57;96213.22;;;10.29;75.54
70954;BME280;58618;47.490;8.736;2024-03-23T13:43:44;96206.38;;;10.38;71.98
70954;BME280;58618;47.490;8.736;2024-03-23T13:46:31;96192.94;;;10.23;71.68
70954;BME280;58618;47.490;8.736;2024-03-23T13:49:25;96196.00;;;10.43;74.51
70954;BME280;58618;47.490;8.736;2024-03-23T13:52:14;96197.47;;;10.68;70.90
70954;BME280;58618;47.490;8.736;2024-03-23T13:55:00;96222.28;;;10.45;68.92
70954;BME280;58618;47.490;8.736;2024-03-23T13:57:47;96222.63;;;10.20;74.51
70954;BME280;58618;47.490;8.736;2024-03-23T14:00:34;96213.59;;;9.94;95.51
70954;BME280;58618;47.490;8.736;2024-03-23T14:03:22;96195.00;;;10.21;92.51
70954;BME280;58618;47.490;8.736;2024-03-23T14:06:09;96193.19;;;10.21;87.42
70954;BME280;58618;47.490;8.736;2024-03-23T14:08:57;96198.44;;;10.11;92.01
70954;BME280;58618;47.490;8.736;2024-03-23T14:11:44;96189.25;;;10.05;95.44
70954;BME280;58618;47.490;8.736;2024-03-23T14:14:31;96188.25;;;10.01;82.06
70954;BME280;58618;47.490;8.736;2024-03-23T14:17:17;96181.88;;;9.98;76.51
70954;BME280;58618;47.490;8.736;2024-03-23T14:20:06;96179.13;;;9.90;76.77
70954;BME280;58618;47.490;8.736;2024-03-23T14:22:55;96170.66;;;9.84;73.47
70954;BME280;58618;47.490;8.736;2024-03-23T14:25:44;96167.72;;;9.48;75.21
70954;BME280;58618;47.490;8.736;2024-03-23T14:28:31;96166.94;;;9.24;75.93
70954;BME280;58618;47.490;8.736;2024-03-23T14:31:19;96175.94;;;9.21;73.07
70954;BME280;58618;47.490;8.736;2024-03-23T14:34:05;96168.53;;;9.20;70.66
70954;BME280;58618;47.490;8.736;2024-03-23T14:36:52;96167.50;;;9.68;66.73
70954;BME280;58618;47.490;8.736;2024-03-23T14:39:39;96169.31;;;9.92;69.49
70954;BME280;58618;47.490;8.736;2024-03-23T14:42:29;96170.53;;;9.75;68.90
70954;BME280;58618;47.490;8.736;2024-03-23T14:45:16;96154.94;;;9.86;60.75
70954;BME280;58618;47.490;8.736;2024-03-23T14:48:04;96165.13;;;9.96;65.18
70954;BME280;58618;47.490;8.736;2024-03-23T14:50:55;96172.22;;;9.85;62.87
70954;BME280;58618;47.490;8.736;2024-03-23T14:53:45;96172.28;;;9.56;63.50
70954;BME280;58618;47.490;8.736;2024-03-23T14:56:32;96174.19;;;9.69;62.54
70954;BME280;58618;47.490;8.736;2024-03-23T14:59:23;96166.44;;;10.17;61.27
70954;BME280;58618;47.490;8.736;2024-03-23T15:02:09;96170.66;;;10.50;61.83
70954;BME280;58618;47.490;8.736;2024-03-23T15:04:58;96158.84;;;10.63;56.49
70954;BME280;58618;47.490;8.736;2024-03-23T15:07:45;96164.78;;;10.64;52.71
70954;BME280;58618;47.490;8.736;2024-03-23T15:10:33;96167.56;;;10.48;53.65
70954;BME280;58618;47.490;8.736;2024-03-23T15:13:19;96163.53;;;10.42;52.95
70954;BME280;58618;47.490;8.736;2024-03-23T15:16:10;96160.38;;;10.64;52.82
70954;BME280;58618;47.490;8.736;2024-03-23T15:18:57;96158.38;;;10.42;53.06
70954;BME280;58618;47.490;8.736;2024-03-23T15:21:45;96144.28;;;10.16;50.44
70954;BME280;58618;47.490;8.736;2024-03-23T15:24:31;96146.34;;;10.19;51.53
70954;BME280;58618;47.490;8.736;2024-03-23T15:27:20;96163.19;;;10.30;56.48
70954;BME280;58618;47.490;8.736;2024-03-23T15:30:07;96152.97;;;10.25;50.68
70954;BME280;58618;47.490;8.736;2024-03-23T15:32:56;96164.56;;;10.60;50.46
70954;BME280;58618;47.490;8.736;2024-03-23T15:35:43;96149.94;;;10.55;53.39
70954;BME280;58618;47.490;8.736;2024-03-23T15:38:31;96144.53;;;10.57;49.79
70954;BME280;58618;47.490;8.736;2024-03-23T15:41:18;96147.66;;;10.35;51.39